Time;durP1;ratioP1;P1;durP2;ratioP2;P2;SDS_P1;SDS_P2;PMS_P1;PMS_P2;Temp;Humidity;BMP_temperature;BMP_pressure;BME280_temperature;BME280_humidity;BME280_pressure;Samples;Min_cycle;Max_cycle;Signal;HPM_P1;HPM_P2
2022/11/25 00:01:32;;;;;;;15.00;1.33;;;7.20;99.90;;;;;;5022101;28;20049;-63
2022/11/25 00:04:00;;;;;;;11.52;1.33;;;;;;;;;;5024071;28;20053;-62
2022/11/25 00:06:30;;;;;;;9.43;1.50;;;7.30;99.90;;;;;;5016117;28;20042;-72
2022/11/25 00:09:01;;;;;;;;;;;7.30;99.90;;;;;;5028559;28;20049;-63
2022/11/25 00:11:28;;;;;;;8.32;1.30;;;7.30;99.90;;;;;;5011517;28;19932;-80
2022/11/25 00:13:56;;;;;;;20.48;2.10;;;7.20;99.90;;;;;;5014710;28;20045;-71
2022/11/25 00:16:25;;;;;;;5.28;0.95;;;7.20;99.90;;;;;;5015227;28;20494;-63
2022/11/25 00:18:55;;;;;;;8.52;1.58;;;7.20;99.90;;;;;;5014276;28;20046;-63
2022/11/25 00:21:28;;;;;;;9.70;2.13;;;7.20;99.90;;;;;;5013020;28;20069;-62
2022/11/25 00:24:02;;;;;;;5.78;0.90;;;7.30;99.90;;;;;;5013201;28;20041;-63
2022/11/25 00:26:33;;;;;;;10.00;1.60;;;7.30;99.90;;;;;;5009473;28;20060;-63
2022/11/25 00:29:06;;;;;;;12.15;1.38;;;7.30;99.90;;;;;;5010369;28;20045;-63
2022/11/25 00:31:37;;;;;;;8.45;1.20;;;7.30;99.90;;;;;;5046900;28;21652;-63
2022/11/25 00:34:06;;;;;;;6.82;0.77;;;7.30;99.90;;;;;;5050575;28;20030;-62
2022/11/25 00:36:36;;;;;;;7.57;2.03;;;7.30;99.90;;;;;;5014701;28;20060;-67
2022/11/25 00:39:12;;;;;;;7.57;1.40;;;7.30;99.90;;;;;;5016479;28;20301;-63
2022/11/25 00:44:40;;;;;;;12.85;0.95;;;7.30;99.90;;;;;;5025968;28;20129;-63
2022/11/25 00:47:14;;;;;;;6.72;0.90;;;7.30;99.90;;;;;;5023824;28;20064;-63
2022/11/25 00:49:47;;;;;;;6.53;1.10;;;7.40;99.90;;;;;;5017576;28;20053;-63
2022/11/25 00:52:17;;;;;;;5.95;0.93;;;7.40;99.90;;;;;;5018977;28;20452;-63
2022/11/25 00:54:49;;;;;;;11.75;1.38;;;7.40;99.90;;;;;;5046241;28;20474;-62
2022/11/25 00:57:22;;;;;;;10.57;1.33;;;7.40;99.90;;;;;;5014158;28;20042;-63
2022/11/25 00:59:50;;;;;;;5.10;0.88;;;7.30;99.90;;;;;;5020311;28;20393;-62
2022/11/25 01:02:21;;;;;;;10.52;1.38;;;7.40;99.90;;;;;;5016655;28;20398;-62
2022/11/25 01:04:48;;;;;;;4.10;0.60;;;7.40;99.90;;;;;;5007562;28;20049;-62
2022/11/25 01:07:16;;;;;;;8.02;1.33;;;7.40;99.90;;;;;;5029158;28;20046;-63
2022/11/25 01:09:44;;;;;;;8.50;1.17;;;7.40;99.90;;;;;;5027760;28;20048;-62
2022/11/25 01:12:12;;;;;;;5.18;0.57;;;7.40;99.90;;;;;;5015102;28;20045;-62
2022/11/25 01:14:40;;;;;;;4.75;0.70;;;7.40;99.90;;;;;;5011886;28;20057;-63
2022/11/25 01:17:08;;;;;;;6.93;1.00;;;7.40;99.90;;;;;;5013940;28;20042;-62
2022/11/25 01:19:39;;;;;;;10.45;1.25;;;7.40;99.90;;;;;;5014778;28;20048;-64
2022/11/25 01:22:08;;;;;;;8.15;0.93;;;7.40;99.90;;;;;;5050024;28;20064;-62
2022/11/25 01:24:35;;;;;;;6.85;1.05;;;7.40;99.90;;;;;;5011320;28;20056;-63
2022/11/25 01:27:03;;;;;;;2.47;0.47;;;7.40;99.90;;;;;;5014366;28;20038;-62
2022/11/25 01:29:31;;;;;;;4.93;0.70;;;7.50;99.90;;;;;;5014706;28;20042;-90
2022/11/25 01:31:58;;;;;;;12.40;1.85;;;7.50;99.90;;;;;;5005718;28;20041;-85
2022/11/25 01:34:27;;;;;;;6.22;0.95;;;7.50;99.90;;;;;;5022684;28;20053;-88
2022/11/25 01:36:57;;;;;;;12.57;1.30;;;7.60;99.90;;;;;;5016507;28;20041;-89
2022/11/25 01:39:25;;;;;;;5.45;1.05;;;7.50;99.90;;;;;;5013409;28;20057;-83
2022/11/25 01:42:01;;;;;;;12.93;1.27;;;7.50;99.90;;;;;;5017788;28;20060;-63
2022/11/25 01:44:31;;;;;;;4.77;0.67;;;7.60;99.90;;;;;;5024864;28;20041;-72
2022/11/25 01:47:34;;;;;;;12.90;1.58;;;7.60;99.90;;;;;;5022757;28;20046;-75
2022/11/25 01:50:08;;;;;;;5.95;1.25;;;7.60;99.90;;;;;;5016377;28;20037;-89
2022/11/25 01:52:43;;;;;;;7.50;1.20;;;7.60;99.90;;;;;;5009983;28;20045;-86
2022/11/25 01:55:25;;;;;;;7.50;1.20;;;7.60;99.90;;;;;;5008239;28;20049;-85
2022/11/25 01:58:06;;;;;;;8.60;0.98;;;7.60;99.90;;;;;;5007325;28;20060;-69
2022/11/25 02:00:36;;;;;;;6.50;1.25;;;7.60;99.90;;;;;;5055183;28;20041;-89
2022/11/25 02:03:04;;;;;;;12.00;1.30;;;7.60;99.90;;;;;;5009984;28;20061;-90
2022/11/25 02:05:51;;;;;;;5.28;1.05;;;7.50;99.90;;;;;;5020186;28;20046;-86
2022/11/25 02:08:21;;;;;;;6.97;0.73;;;7.60;99.90;;;;;;5074227;28;20042;-90
2022/11/25 02:10:53;;;;;;;6.75;1.27;;;7.60;99.90;;;;;;5015623;28;20050;-84
2022/11/25 02:13:22;;;;;;;6.07;1.13;;;7.60;99.90;;;;;;5018250;28;20049;-90
2022/11/25 02:15:50;;;;;;;12.00;2.38;;;7.60;99.90;;;;;;5028089;28;20056;-72
2022/11/25 02:18:18;;;;;;;5.35;0.90;;;7.60;99.90;;;;;;5042704;28;20103;-67
2022/11/25 02:20:46;;;;;;;10.18;1.52;;;7.60;99.90;;;;;;5015922;28;20046;-71
2022/11/25 02:23:24;;;;;;;2.80;1.15;;;7.60;99.90;;;;;;5045555;28;20053;-64
2022/11/25 02:25:54;;;;;;;11.13;1.08;;;7.60;99.90;;;;;;5018843;28;20050;-63
2022/11/25 02:28:25;;;;;;;3.22;0.45;;;7.60;99.90;;;;;;5015338;28;20052;-67
2022/11/25 02:30:53;;;;;;;7.30;1.63;;;7.60;99.90;;;;;;5017113;28;20050;-62
2022/11/25 02:33:22;;;;;;;7.80;1.13;;;7.60;99.90;;;;;;5020447;28;20045;-75
2022/11/25 02:35:58;;;;;;;12.75;1.35;;;7.60;99.90;;;;;;5022343;28;20042;-62
2022/11/25 02:38:41;;;;;;;2.60;0.40;;;7.50;99.90;;;;;;5035040;28;20042;-62
2022/11/25 02:41:12;;;;;;;10.32;1.50;;;7.50;99.90;;;;;;5023990;28;20041;-62
2022/11/25 02:43:40;;;;;;;9.32;1.48;;;7.30;99.90;;;;;;5019408;28;20045;-62
2022/11/25 02:46:15;;;;;;;12.05;0.80;;;7.40;99.90;;;;;;5025740;28;20038;-80
2022/11/25 02:48:50;;;;;;;10.63;1.10;;;7.30;99.90;;;;;;5033099;28;20448;-72
2022/11/25 02:51:43;;;;;;;8.38;1.10;;;7.30;99.90;;;;;;5015635;28;20046;-89
2022/11/25 02:54:14;;;;;;;5.10;1.38;;;7.20;99.90;;;;;;5039434;28;20045;-81
2022/11/25 02:56:42;;;;;;;4.18;0.75;;;7.20;99.90;;;;;;5021207;28;20050;-83
2022/11/25 02:59:10;;;;;;;3.80;0.73;;;7.10;99.90;;;;;;4996765;28;20057;-63
2022/11/25 03:01:39;;;;;;;7.82;1.08;;;7.10;99.90;;;;;;5019002;28;20501;-63
2022/11/25 03:04:09;;;;;;;;;;;7.20;99.90;;;;;;5021140;28;20385;-62
2022/11/25 03:06:37;;;;;;;9.27;0.75;;;7.10;99.90;;;;;;5026819;28;19920;-62
2022/11/25 03:09:06;;;;;;;8.50;1.33;;;7.10;99.90;;;;;;5029267;28;20037;-62
2022/11/25 03:14:24;;;;;;;3.95;0.93;;;7.10;99.90;;;;;;5007924;28;20497;-63
2022/11/25 03:16:51;;;;;;;8.13;0.70;;;7.10;99.90;;;;;;5030482;28;20065;-62
2022/11/25 03:19:19;;;;;;;3.88;0.70;;;7.10;99.90;;;;;;5028933;28;20054;-75
2022/11/25 03:21:47;;;;;;;7.60;0.65;;;7.20;99.90;;;;;;5021963;28;20155;-62
2022/11/25 03:24:14;;;;;;;3.10;0.80;;;7.20;99.90;;;;;;5021296;28;20552;-92
2022/11/25 03:26:42;;;;;;;4.20;0.50;;;7.20;99.90;;;;;;5027565;28;20050;-62
2022/11/25 03:29:10;;;;;;;8.07;0.80;;;7.20;99.90;;;;;;5025253;28;20044;-63
2022/11/25 03:31:37;;;;;;;10.10;1.25;;;7.20;99.90;;;;;;5020194;28;20049;-87
2022/11/25 03:34:08;;;;;;;4.50;0.77;;;6.60;99.90;;;;;;5012282;28;20522;-78
2022/11/25 03:36:36;;;;;;;3.60;0.40;;;7.20;99.90;;;;;;5064619;28;20040;-79
2022/11/25 03:39:03;;;;;;;6.13;0.70;;;7.20;99.90;;;;;;5040336;28;20049;-86
2022/11/25 03:41:32;;;;;;;1.40;0.50;;;7.20;99.90;;;;;;5028784;28;20045;-78
2022/11/25 03:44:00;;;;;;;6.50;1.23;;;7.20;99.90;;;;;;5018804;28;20057;-78
2022/11/25 03:46:28;;;;;;;5.72;0.95;;;7.20;99.90;;;;;;5022380;28;20037;-87
2022/11/25 03:48:55;;;;;;;6.53;0.85;;;7.20;99.90;;;;;;5025181;28;20044;-82
2022/11/25 03:51:23;;;;;;;12.05;1.30;;;7.20;99.90;;;;;;5034824;28;20049;-88
2022/11/25 03:53:52;;;;;;;5.22;0.80;;;;;;;;;;5014878;28;20072;-78
2022/11/25 03:56:20;;;;;;;8.18;1.65;;;7.20;99.90;;;;;;5040993;28;20045;-91
2022/11/25 03:58:47;;;;;;;6.18;1.20;;;7.20;99.90;;;;;;5029941;28;20049;-93
2022/11/25 04:01:17;;;;;;;6.93;0.57;;;7.10;99.90;;;;;;5062691;28;20034;-91
2022/11/25 04:03:46;;;;;;;9.25;0.82;;;7.10;99.90;;;;;;5029456;28;20042;-91
2022/11/25 04:06:14;;;;;;;1.67;0.70;;;7.00;99.90;;;;;;5062582;28;20045;-87
2022/11/25 04:08:42;;;;;;;5.50;0.80;;;7.00;99.90;;;;;;5021004;28;20057;-90
2022/11/25 04:11:10;;;;;;;8.23;0.73;;;7.00;99.90;;;;;;5025066;28;20493;-87
2022/11/25 04:13:42;;;;;;;7.93;1.33;;;7.00;99.90;;;;;;5033154;28;20041;-86
2022/11/25 04:16:24;;;;;;;6.60;1.02;;;6.90;99.90;;;;;;5054302;28;20038;-90
2022/11/25 04:18:53;;;;;;;9.02;1.45;;;6.90;99.90;;;;;;5000448;28;20535;-79
2022/11/25 04:21:20;;;;;;;7.00;0.82;;;6.80;99.90;;;;;;5019315;28;20045;-84
2022/11/25 04:23:48;;;;;;;11.10;0.98;;;6.80;99.90;;;;;;5023780;28;20046;-92
2022/11/25 04:26:16;;;;;;;3.88;0.75;;;6.80;99.90;;;;;;5019100;28;20068;-84
2022/11/25 04:28:44;;;;;;;5.55;0.65;;;6.80;99.90;;;;;;5025265;28;20053;-86
2022/11/25 04:31:12;;;;;;;5.72;0.52;;;6.80;99.90;;;;;;5018629;28;20505;-91
2022/11/25 04:33:42;;;;;;;3.42;1.17;;;6.70;99.90;;;;;;5052309;28;20077;-93
2022/11/25 04:36:18;;;;;;;5.28;0.68;;;6.70;99.90;;;;;;5026304;28;20037;-73
2022/11/25 04:38:45;;;;;;;5.28;0.75;;;6.70;99.90;;;;;;5017729;28;20049;-92
2022/11/25 04:41:13;;;;;;;9.05;0.90;;;6.60;99.90;;;;;;5052321;28;20537;-93
2022/11/25 04:43:43;;;;;;;8.50;0.70;;;6.60;99.90;;;;;;5016172;28;20041;-92
2022/11/25 04:46:18;;;;;;;4.72;0.75;;;6.60;99.90;;;;;;5012225;28;20045;-91
2022/11/25 04:48:49;;;;;;;4.97;1.02;;;6.60;99.90;;;;;;5051789;28;20524;-92
2022/11/25 04:51:17;;;;;;;7.07;0.95;;;6.50;99.90;;;;;;5027320;28;20382;-80
2022/11/25 04:53:48;;;;;;;4.72;0.70;;;6.50;99.90;;;;;;5027223;28;20505;-64
2022/11/25 04:56:18;;;;;;;9.10;1.10;;;6.50;99.90;;;;;;5025969;28;20049;-62
2022/11/25 05:01:36;;;;;;;;;;;6.40;99.90;;;;;;5026368;28;20505;-62
2022/11/25 05:04:23;;;;;;;5.63;0.60;;;6.40;99.90;;;;;;5047811;28;19940;-73
2022/11/25 05:06:51;;;;;;;5.70;0.93;;;6.40;99.90;;;;;;5007783;28;20040;-62
2022/11/25 05:09:23;;;;;;;13.15;1.90;;;6.40;99.90;;;;;;5053213;28;20401;-64
2022/11/25 05:12:02;;;;;;;5.40;0.65;;;6.30;99.90;;;;;;5009993;28;20042;-63
2022/11/25 05:14:30;;;;;;;5.63;0.90;;;6.30;99.90;;;;;;5042068;28;20053;-67
2022/11/25 05:16:58;;;;;;;7.43;2.08;;;6.20;99.90;;;;;;5022840;28;20481;-63
2022/11/25 05:19:26;;;;;;;7.45;0.98;;;6.20;99.90;;;;;;5021974;28;20045;-64
2022/11/25 05:21:53;;;;;;;8.98;1.17;;;6.20;99.90;;;;;;5011502;28;20377;-89
2022/11/25 05:24:24;;;;;;;9.85;1.15;;;6.20;99.90;;;;;;5051393;28;20041;-73
2022/11/25 05:26:52;;;;;;;14.85;1.95;;;8.70;99.90;;;;;;5013976;28;20050;-72
2022/11/25 05:29:20;;;;;;;10.45;2.10;;;6.10;99.90;;;;;;5020301;28;20041;-63
2022/11/25 05:31:48;;;;;;;6.35;0.75;;;6.10;99.90;;;;;;5019406;28;20511;-63
2022/11/25 05:34:16;;;;;;;8.75;0.80;;;6.10;99.90;;;;;;5020899;28;20052;-64
2022/11/25 05:36:44;;;;;;;8.05;1.00;;;6.10;99.90;;;;;;5031058;28;20033;-63
2022/11/25 05:39:12;;;;;;;6.00;0.77;;;6.10;99.90;;;;;;5031008;28;20037;-86
2022/11/25 05:42:06;;;;;;;6.68;1.70;;;6.10;99.90;;;;;;5024481;28;20058;-94
2022/11/25 05:44:34;;;;;;;11.60;1.15;;;6.10;99.90;;;;;;5050204;28;20056;-79
2022/11/25 05:47:02;;;;;;;6.10;0.77;;;6.10;99.90;;;;;;5021790;28;20520;-76
2022/11/25 05:49:30;;;;;;;7.53;1.00;;;6.00;99.90;;;;;;5018961;28;20591;-77
2022/11/25 05:51:57;;;;;;;6.55;1.13;;;6.10;99.90;;;;;;5010919;28;20048;-69
2022/11/25 05:54:27;;;;;;;;;;;6.00;99.90;;;;;;5015245;28;20061;-65
2022/11/25 05:56:54;;;;;;;9.05;1.10;;;6.00;99.90;;;;;;5022544;28;19936;-64
2022/11/25 05:59:30;;;;;;;9.00;1.65;;;6.00;99.90;;;;;;5006422;28;20038;-65
2022/11/25 06:02:04;;;;;;;7.25;1.02;;;6.00;99.90;;;;;;5012309;28;20038;-71
2022/11/25 06:04:32;;;;;;;12.10;0.73;;;6.00;99.90;;;;;;4983856;28;20076;-66
2022/11/25 06:07:02;;;;;;;10.32;1.42;;;5.90;99.90;;;;;;5016413;28;20037;-71
2022/11/25 06:09:30;;;;;;;6.18;1.17;;;5.90;99.90;;;;;;5020346;28;20053;-65
2022/11/25 06:11:58;;;;;;;16.02;1.80;;;5.80;99.90;;;;;;5005003;28;20400;-64
2022/11/25 06:14:27;;;;;;;9.18;1.02;;;5.80;99.90;;;;;;5031565;28;20053;-64
2022/11/25 06:16:55;;;;;;;4.07;0.82;;;5.80;99.90;;;;;;5021624;28;21793;-62
2022/11/25 06:19:36;;;;;;;10.68;1.00;;;5.60;99.90;;;;;;5055934;28;20060;-64
2022/11/25 06:22:03;;;;;;;3.63;0.63;;;5.70;99.90;;;;;;5049101;28;20041;-65
2022/11/25 06:24:31;;;;;;;9.27;1.10;;;5.60;99.90;;;;;;5014866;28;20052;-67
2022/11/25 06:27:04;;;;;;;9.23;1.25;;;5.60;99.90;;;;;;5024076;28;20485;-87
2022/11/25 06:29:34;;;;;;;5.85;0.70;;;5.50;99.90;;;;;;5022181;28;20462;-67
2022/11/25 06:32:02;;;;;;;2.22;0.70;;;5.40;99.90;;;;;;5009734;28;20052;-71
2022/11/25 06:34:50;;;;;;;4.32;1.00;;;5.30;99.90;;;;;;5014829;28;20042;-67
2022/11/25 06:37:33;;;;;;;12.52;1.17;;;5.20;99.90;;;;;;5053633;28;20045;-63
2022/11/25 06:40:01;;;;;;;3.55;0.90;;;5.20;99.90;;;;;;5020198;28;20053;-63
2022/11/25 06:42:29;;;;;;;4.43;2.17;;;5.10;99.90;;;;;;5025714;28;20061;-65
2022/11/25 06:44:57;;;;;;;6.38;1.05;;;5.10;99.90;;;;;;5025582;28;20064;-64
2022/11/25 06:47:25;;;;;;;11.10;1.40;;;5.10;99.90;;;;;;5026009;28;20065;-83
2022/11/25 06:49:52;;;;;;;17.77;1.48;;;5.00;99.90;;;;;;5017042;28;20072;-65
2022/11/25 06:52:20;;;;;;;10.18;0.93;;;5.00;99.90;;;;;;5017238;28;20405;-65
2022/11/25 06:54:48;;;;;;;14.25;1.25;;;5.00;99.90;;;;;;5025604;28;20818;-65
2022/11/25 06:57:18;;;;;;;5.70;0.70;;;5.00;99.90;;;;;;5018827;28;20413;-64
2022/11/25 06:59:46;;;;;;;10.75;1.27;;;5.00;99.90;;;;;;5023923;28;20057;-71
2022/11/25 07:02:13;;;;;;;7.45;1.35;;;5.00;99.90;;;;;;5020548;28;20045;-66
2022/11/25 07:04:41;;;;;;;4.85;1.33;;;5.00;99.90;;;;;;5011277;28;20410;-64
2022/11/25 07:07:09;;;;;;;12.25;1.65;;;5.00;99.90;;;;;;5017921;28;20042;-90
2022/11/25 07:09:37;;;;;;;11.07;4.95;;;5.00;99.90;;;;;;5008725;28;20058;-64
2022/11/25 07:12:05;;;;;;;10.80;1.65;;;5.00;99.90;;;;;;5013579;28;20041;-62
2022/11/25 07:14:33;;;;;;;12.18;1.60;;;5.00;99.90;;;;;;5024146;28;20420;-63
2022/11/25 07:17:01;;;;;;;14.65;2.35;;;5.00;99.90;;;;;;5025245;28;20057;-79
2022/11/25 07:19:35;;;;;;;16.48;1.38;;;5.00;99.90;;;;;;5007039;28;20060;-89
2022/11/25 07:22:02;;;;;;;13.32;1.40;;;5.00;99.90;;;;;;5018657;28;20042;-87
2022/11/25 07:24:30;;;;;;;10.48;1.48;;;4.90;99.90;;;;;;5026839;28;20512;-68
2022/11/25 07:26:58;;;;;;;10.85;1.38;;;4.80;99.90;;;;;;5005240;28;20034;-63
2022/11/25 07:29:26;;;;;;;21.77;1.75;;;4.80;99.90;;;;;;5029340;28;20061;-63
2022/11/25 07:32:14;;;;;;;6.93;1.13;;;4.80;99.90;;;;;;5020990;28;20037;-64
2022/11/25 07:34:41;;;;;;;7.88;1.05;;;4.70;99.90;;;;;;5014024;28;20053;-64
2022/11/25 07:37:09;;;;;;;12.30;1.77;;;4.70;99.90;;;;;;5028826;28;20045;-63
2022/11/25 07:39:37;;;;;;;8.73;1.50;;;4.70;99.90;;;;;;5022003;28;20516;-64
2022/11/25 07:42:05;;;;;;;15.93;2.38;;;4.70;99.90;;;;;;5016176;28;20049;-62
2022/11/25 07:44:32;;;;;;;7.10;2.42;;;4.60;99.90;;;;;;5023525;28;20045;-63
2022/11/25 07:47:15;;;;;;;13.07;4.45;;;4.50;99.90;;;;;;5018909;28;20241;-64
2022/11/25 07:49:43;;;;;;;10.93;2.90;;;4.50;99.90;;;;;;5021011;28;20056;-65
2022/11/25 07:52:11;;;;;;;13.40;1.90;;;4.50;99.90;;;;;;5010177;28;20049;-63
2022/11/25 07:54:39;;;;;;;11.30;2.10;;;4.50;99.90;;;;;;5008856;28;20065;-64
2022/11/25 07:57:06;;;;;;;17.83;4.63;;;4.60;99.90;;;;;;5009549;28;20398;-64
2022/11/25 07:59:35;;;;;;;14.00;3.65;;;4.60;99.90;;;;;;5013322;28;20053;-63
2022/11/25 08:02:03;;;;;;;21.85;5.30;;;4.60;99.90;;;;;;5009122;28;20053;-63
2022/11/25 08:04:30;;;;;;;13.25;3.33;;;4.50;99.90;;;;;;5023438;28;20037;-63
2022/11/25 08:06:58;;;;;;;12.93;2.22;;;4.50;99.90;;;;;;5019783;28;20600;-64
2022/11/25 08:09:26;;;;;;;11.82;2.67;;;4.50;99.90;;;;;;5028078;28;20513;-62
2022/11/25 08:11:54;;;;;;;23.45;3.80;;;4.40;99.90;;;;;;5020099;28;20037;-63
2022/11/25 08:14:21;;;;;;;10.60;2.42;;;4.30;99.90;;;;;;5012189;28;20057;-64
2022/11/25 08:16:49;;;;;;;12.75;3.33;;;4.40;99.90;;;;;;5010798;28;20037;-64
2022/11/25 08:19:18;;;;;;;10.90;3.03;;;4.10;99.90;;;;;;5017961;28;20524;-63
2022/11/25 08:21:48;;;;;;;7.32;2.75;;;4.30;99.90;;;;;;5008872;28;20409;-63
2022/11/25 08:24:19;;;;;;;11.38;2.80;;;4.20;99.90;;;;;;5027467;28;20049;-63
2022/11/25 08:26:47;;;;;;;12.15;3.53;;;4.20;99.90;;;;;;5014047;28;20056;-70
2022/11/25 08:29:17;;;;;;;15.32;3.28;;;4.20;99.90;;;;;;5017025;28;20800;-74
2022/11/25 08:31:45;;;;;;;16.98;2.78;;;4.20;99.90;;;;;;5007856;28;20508;-64
2022/11/25 08:34:19;;;;;;;14.38;3.67;;;4.20;99.90;;;;;;5058765;28;20049;-65
2022/11/25 08:36:48;;;;;;;30.67;3.47;;;4.20;99.90;;;;;;5024721;28;20045;-70
2022/11/25 08:39:17;;;;;;;19.40;2.70;;;4.20;99.90;;;;;;5026077;28;20049;-63
2022/11/25 08:42:05;;;;;;;14.52;3.63;;;4.30;99.90;;;;;;5024472;28;20644;-65
2022/11/25 08:44:33;;;;;;;24.02;4.38;;;4.40;99.90;;;;;;5031255;28;20045;-76
2022/11/25 08:47:01;;;;;;;17.40;3.70;;;4.50;99.90;;;;;;5027630;28;20068;-77
2022/11/25 08:49:29;;;;;;;13.85;2.35;;;4.60;99.90;;;;;;5041937;28;20440;-89
2022/11/25 08:52:02;;;;;;;14.63;3.00;;;4.70;99.90;;;;;;5020719;28;20046;-80
2022/11/25 08:54:30;;;;;;;13.35;2.22;;;4.80;99.90;;;;;;5028518;28;20052;-77
2022/11/25 08:56:59;;;;;;;22.85;2.60;;;4.80;99.90;;;;;;5033623;28;20060;-87
2022/11/25 08:59:27;;;;;;;26.33;2.25;;;5.00;99.90;;;;;;5026961;28;20366;-78
2022/11/25 09:01:54;;;;;;;21.48;2.85;;;5.10;99.90;;;;;;5030184;28;20049;-80
2022/11/25 09:04:22;;;;;;;12.98;2.35;;;5.10;99.90;;;;;;5024240;28;20041;-87
2022/11/25 09:06:49;;;;;;;15.23;1.98;;;5.30;99.90;;;;;;5023366;28;20046;-80
2022/11/25 09:09:17;;;;;;;15.15;1.60;;;5.30;99.90;;;;;;5031111;28;20061;-77
2022/11/25 09:11:45;;;;;;;17.15;2.42;;;5.40;99.90;;;;;;5015928;28;20041;-89
2022/11/25 09:14:13;;;;;;;16.73;2.55;;;5.50;99.90;;;;;;5024981;28;20041;-66
2022/11/25 09:16:41;;;;;;;19.02;2.53;;;5.60;99.90;;;;;;5022816;28;20049;-91
2022/11/25 09:19:08;;;;;;;17.73;1.98;;;5.70;99.90;;;;;;5056046;28;20055;-89
2022/11/25 09:21:36;;;;;;;33.67;2.90;;;5.80;99.90;;;;;;5033834;28;20056;-81
2022/11/25 09:24:04;;;;;;;17.45;2.53;;;5.90;99.90;;;;;;5022225;28;20052;-81
2022/11/25 09:26:34;;;;;;;11.95;1.60;;;6.00;99.90;;;;;;5031302;28;20060;-70
2022/11/25 09:29:02;;;;;;;18.67;1.58;;;6.60;99.90;;;;;;5042751;28;20045;-68
2022/11/25 09:31:30;;;;;;;14.98;2.53;;;6.20;99.90;;;;;;5022327;28;20045;-87
2022/11/25 09:33:58;;;;;;;12.55;2.25;;;6.20;99.90;;;;;;5026503;28;20042;-83
2022/11/25 09:36:26;;;;;;;11.77;1.80;;;6.40;99.90;;;;;;5032202;28;20057;-83
2022/11/25 09:38:54;;;;;;;25.42;3.38;;;6.40;99.90;;;;;;5038171;28;20045;-76
2022/11/25 09:48:03;;;;;;;16.38;1.98;;;6.90;99.90;;;;;;5026648;28;20053;-68
2022/11/25 09:50:33;;;;;;;19.77;1.85;;;6.80;99.90;;;;;;5036346;28;20057;-70
2022/11/25 09:53:09;;;;;;;10.35;1.67;;;7.00;99.90;;;;;;5031273;28;20049;-84
2022/11/25 09:55:44;;;;;;;11.88;1.67;;;7.00;99.90;;;;;;5020801;28;20049;-68
2022/11/25 09:58:38;;;;;;;11.02;1.70;;;7.10;99.90;;;;;;5020742;28;20428;-65
2022/11/25 10:01:14;;;;;;;13.93;2.72;;;7.20;99.90;;;;;;5017271;28;20061;-64
2022/11/25 10:03:46;;;;;;;14.82;2.05;;;7.30;99.90;;;;;;5024167;28;20045;-64
2022/11/25 10:06:15;;;;;;;21.85;2.20;;;7.30;99.90;;;;;;5027962;28;20053;-64
2022/11/25 10:08:48;;;;;;;9.27;1.80;;;7.30;99.90;;;;;;5023451;28;20045;-63
2022/11/25 10:11:20;;;;;;;11.75;2.20;;;7.40;99.90;;;;;;5012167;28;20310;-64
2022/11/25 10:13:59;;;;;;;15.85;1.80;;;7.50;99.90;;;;;;5022952;28;20482;-64
2022/11/25 10:16:37;;;;;;;6.65;1.33;;;7.50;99.90;;;;;;5016775;28;20398;-67
2022/11/25 10:19:30;;;;;;;12.73;1.40;;;7.60;99.90;;;;;;5022770;28;20050;-64
2022/11/25 10:21:58;;;;;;;15.65;1.67;;;7.70;99.90;;;;;;5019193;28;20052;-63
2022/11/25 10:24:26;;;;;;;10.48;1.67;;;7.80;99.90;;;;;;5027149;28;20049;-64
2022/11/25 10:27:00;;;;;;;14.75;1.42;;;7.80;99.90;;;;;;5025609;28;20056;-66
2022/11/25 10:29:29;;;;;;;12.60;1.30;;;7.90;99.90;;;;;;5024292;28;20404;-64
2022/11/25 10:32:18;;;;;;;10.77;2.42;;;8.10;99.90;;;;;;5028681;28;20050;-63
2022/11/25 10:34:52;;;;;;;17.47;1.63;;;8.10;99.90;;;;;;5009665;28;20053;-63
2022/11/25 10:37:30;;;;;;;17.60;2.83;;;8.30;99.90;;;;;;5008363;28;20429;-63
2022/11/25 10:39:58;;;;;;;13.98;1.05;;;8.20;99.90;;;;;;5015682;28;20053;-64
2022/11/25 10:42:27;;;;;;;17.13;1.98;;;8.40;99.90;;;;;;5016710;28;20395;-63
2022/11/25 10:44:55;;;;;;;10.00;1.70;;;8.30;99.90;;;;;;5030300;28;20050;-63
2022/11/25 10:47:51;;;;;;;23.08;2.08;;;8.40;99.90;;;;;;5013051;28;20061;-63
2022/11/25 10:50:41;;;;;;;11.30;2.13;;;8.50;99.90;;;;;;5024221;28;20033;-68
2022/11/25 10:53:16;;;;;;;12.07;1.83;;;8.60;99.90;;;;;;5026084;28;20532;-62
2022/11/25 10:56:08;;;;;;;16.02;1.55;;;8.60;99.90;;;;;;5010784;28;20046;-69
2022/11/25 10:58:38;;;;;;;16.80;1.58;;;8.80;99.90;;;;;;5024440;28;20054;-63
2022/11/25 11:01:22;;;;;;;13.70;1.40;;;8.80;99.90;;;;;;5025409;28;20045;-63
2022/11/25 11:04:10;;;;;;;16.30;1.40;;;9.00;99.90;;;;;;5027442;28;20048;-63
2022/11/25 11:06:40;;;;;;;10.05;1.40;;;9.10;99.90;;;;;;5030352;28;20049;-64
2022/11/25 11:09:39;;;;;;;14.00;1.30;;;9.20;99.90;;;;;;5031434;28;20053;-62
2022/11/25 11:12:26;;;;;;;11.02;1.55;;;9.40;99.90;;;;;;5023055;28;20501;-62
2022/11/25 11:15:17;;;;;;;15.88;2.05;;;9.60;99.90;;;;;;5017776;28;20050;-70
2022/11/25 11:17:44;;;;;;;13.88;1.48;;;9.80;99.90;;;;;;5017359;28;20406;-71
2022/11/25 11:20:19;;;;;;;9.95;2.55;;;10.20;99.90;;;;;;5027683;28;20046;-82
2022/11/25 11:23:01;;;;;;;11.95;1.45;;;10.20;99.90;;;;;;5062597;28;20114;-66
2022/11/25 11:25:37;;;;;;;10.40;2.03;;;10.40;99.90;;;;;;5013543;28;20049;-78
2022/11/25 11:28:37;;;;;;;19.48;1.95;;;10.60;99.90;;;;;;5039145;28;20052;-75
2022/11/25 11:31:18;;;;;;;12.13;1.33;;;10.80;99.90;;;;;;5037062;28;20796;-92
2022/11/25 11:33:46;;;;;;;16.52;1.83;;;10.90;99.90;;;;;;5023914;28;20050;-94
2022/11/25 11:36:34;;;;;;;10.80;1.80;;;11.10;99.90;;;;;;5032143;28;20057;-84
2022/11/25 11:39:34;;;;;;;13.43;1.58;;;11.30;99.90;;;;;;5036269;28;20071;-79
2022/11/25 11:42:37;;;;;;;10.20;1.63;;;11.30;99.90;;;;;;5016807;28;20046;-89
2022/11/25 11:45:23;;;;;;;16.15;1.80;;;11.50;99.90;;;;;;5027989;28;20060;-92
2022/11/25 11:47:59;;;;;;;13.95;1.65;;;11.80;99.90;;;;;;5032141;28;20053;-79
2022/11/25 11:50:49;;;;;;;13.15;1.40;;;12.00;99.90;;;;;;5030549;28;20048;-87
2022/11/25 11:53:46;;;;;;;19.48;2.13;;;12.10;99.90;;;;;;5032680;28;20046;-83
2022/11/25 11:56:21;;;;;;;15.02;2.13;;;12.30;99.90;;;;;;5031638;28;20061;-84
2022/11/25 11:59:35;;;;;;;16.73;2.13;;;12.50;99.90;;;;;;5030123;28;20526;-80
2022/11/25 12:02:31;;;;;;;13.70;2.25;;;12.60;99.90;;;;;;5030378;28;20041;-81
2022/11/25 12:05:30;;;;;;;20.65;2.70;;;12.70;99.90;;;;;;5033335;28;20056;-79
2022/11/25 12:08:21;;;;;;;14.50;1.63;;;12.90;99.90;;;;;;5022640;28;20922;-76
2022/11/25 12:10:52;;;;;;;11.18;1.55;;;13.10;99.90;;;;;;5030517;28;20053;-88
2022/11/25 12:13:38;;;;;;;12.13;3.05;;;13.30;99.90;;;;;;5019821;28;20048;-77
2022/11/25 12:16:20;;;;;;;8.00;1.38;;;13.60;99.90;;;;;;5011691;28;20045;-94
2022/11/25 12:18:50;;;;;;;11.63;1.70;;;13.90;99.90;;;;;;5028449;28;20512;-76
2022/11/25 12:21:28;;;;;;;;;;;14.00;99.90;;;;;;5049821;28;20060;-90
2022/11/25 12:24:14;;;;;;;12.55;1.67;;;14.20;99.90;;;;;;5065989;28;19921;-66
2022/11/25 12:26:51;;;;;;;11.13;2.10;;;14.60;99.90;;;;;;5026209;28;20523;-67
2022/11/25 12:29:38;;;;;;;12.32;1.70;;;14.60;99.90;;;;;;5027092;28;20056;-66
2022/11/25 12:32:45;;;;;;;20.00;2.10;;;14.80;99.90;;;;;;5008191;28;20045;-63
2022/11/25 12:35:26;;;;;;;9.15;1.92;;;15.00;99.90;;;;;;5029344;28;20057;-66
2022/11/25 12:38:03;;;;;;;18.13;2.58;;;15.10;99.90;;;;;;5009508;28;20041;-64
2022/11/25 12:40:30;;;;;;;18.95;1.92;;;15.10;99.90;;;;;;5017109;28;20045;-71
2022/11/25 12:43:25;;;;;;;10.02;1.85;;;15.20;99.90;;;;;;5004579;28;20446;-64
2022/11/25 12:46:19;;;;;;;11.80;1.83;;;15.20;99.90;;;;;;5022439;28;20060;-69
2022/11/25 12:48:46;;;;;;;7.38;1.35;;;15.20;99.90;;;;;;5003297;28;20072;-63
2022/11/25 12:51:43;;;;;;;12.18;1.60;;;15.20;99.90;;;;;;5007794;28;20500;-63
2022/11/25 12:54:25;;;;;;;10.25;1.45;;;15.30;99.90;;;;;;5019738;28;20071;-63
2022/11/25 12:57:06;;;;;;;11.25;1.92;;;15.30;99.90;;;;;;5023798;28;20049;-62
2022/11/25 13:00:09;;;;;;;13.48;1.88;;;15.40;99.90;;;;;;5010811;28;20049;-63
2022/11/25 13:03:41;;;;;;;10.02;1.63;;;15.50;99.90;;;;;;5021449;28;20046;-63
2022/11/25 13:06:37;;;;;;;12.57;1.88;;;15.70;99.90;;;;;;4991102;28;20425;-67
2022/11/25 13:09:33;;;;;;;8.32;2.17;;;15.80;99.90;;;;;;5020886;28;20060;-63
2022/11/25 13:12:03;;;;;;;11.85;1.77;;;15.80;99.90;;;;;;5006886;28;20064;-63
2022/11/25 13:15:17;;;;;;;13.52;1.83;;;15.90;99.90;;;;;;5017091;28;20054;-66
2022/11/25 13:17:48;;;;;;;10.00;1.80;;;15.90;99.90;;;;;;5023463;28;20592;-68
2022/11/25 13:20:28;;;;;;;18.45;2.13;;;16.00;99.90;;;;;;5018788;28;20508;-64
2022/11/25 13:23:04;;;;;;;11.73;2.72;;;16.00;99.90;;;;;;5015897;28;20049;-64
2022/11/25 13:25:33;;;;;;;14.23;2.92;;;16.00;99.90;;;;;;5027870;28;20050;-63
2022/11/25 13:28:04;;;;;;;12.60;1.65;;;16.10;99.90;;;;;;5021627;28;20056;-63
2022/11/25 13:30:31;;;;;;;12.55;2.25;;;16.10;99.90;;;;;;5026045;28;20060;-63
2022/11/25 13:33:08;;;;;;;12.98;1.80;;;16.10;99.90;;;;;;5020272;28;20057;-72
2022/11/25 13:35:42;;;;;;;11.40;2.28;;;16.00;99.90;;;;;;5019708;28;20049;-71
2022/11/25 13:38:29;;;;;;;9.32;1.42;;;16.00;99.90;;;;;;5025685;28;20053;-64